sensor_id;sensor_type;location;lat;lon;timestamp;P1;durP1;ratioP1;P2;durP2;ratioP2
29984;SDS011;17387;42.690;23.328;2023-02-12T00:01:13;24.17;;;11.80;;
29984;SDS011;17387;42.690;23.328;2023-02-12T00:03:39;24.65;;;11.75;;
29984;SDS011;17387;42.690;23.328;2023-02-12T00:06:04;22.60;;;11.38;;
29984;SDS011;17387;42.690;23.328;2023-02-12T00:08:30;21.85;;;11.27;;
29984;SDS011;17387;42.690;23.328;2023-02-12T00:10:55;21.67;;;11.07;;
29984;SDS011;17387;42.690;23.328;2023-02-12T00:13:20;21.27;;;11.25;;
29984;SDS011;17387;42.690;23.328;2023-02-12T00:15:46;23.15;;;11.75;;
29984;SDS011;17387;42.690;23.328;2023-02-12T00:18:11;22.42;;;11.02;;
29984;SDS011;17387;42.690;23.328;2023-02-12T00:20:36;21.45;;;10.38;;
29984;SDS011;17387;42.690;23.328;2023-02-12T00:23:02;19.17;;;10.98;;
29984;SDS011;17387;42.690;23.328;2023-02-12T00:25:27;22.10;;;10.65;;
29984;SDS011;17387;42.690;23.328;2023-02-12T00:27:53;18.27;;;10.63;;
29984;SDS011;17387;42.690;23.328;2023-02-12T00:30:18;23.33;;;11.23;;
29984;SDS011;17387;42.690;23.328;2023-02-12T00:32:44;21.48;;;11.20;;
29984;SDS011;17387;42.690;23.328;2023-02-12T00:35:09;20.42;;;11.13;;
29984;SDS011;17387;42.690;23.328;2023-02-12T00:37:34;21.58;;;11.20;;
29984;SDS011;17387;42.690;23.328;2023-02-12T00:40:00;21.48;;;11.77;;
29984;SDS011;17387;42.690;23.328;2023-02-12T00:42:25;26.23;;;12.60;;
29984;SDS011;17387;42.690;23.328;2023-02-12T00:44:50;26.77;;;12.07;;
29984;SDS011;17387;42.690;23.328;2023-02-12T00:47:15;24.05;;;12.55;;
29984;SDS011;17387;42.690;23.328;2023-02-12T00:49:41;24.60;;;12.35;;
29984;SDS011;17387;42.690;23.328;2023-02-12T00:52:06;24.33;;;11.98;;
29984;SDS011;17387;42.690;23.328;2023-02-12T00:54:31;23.90;;;11.75;;
29984;SDS011;17387;42.690;23.328;2023-02-12T00:56:57;20.55;;;11.85;;
29984;SDS011;17387;42.690;23.328;2023-02-12T00:59:23;23.52;;;12.43;;
29984;SDS011;17387;42.690;23.328;2023-02-12T01:01:49;23.50;;;11.90;;
29984;SDS011;17387;42.690;23.328;2023-02-12T01:04:14;21.98;;;11.15;;
29984;SDS011;17387;42.690;23.328;2023-02-12T01:06:40;22.60;;;11.43;;
29984;SDS011;17387;42.690;23.328;2023-02-12T01:09:05;23.10;;;12.07;;
29984;SDS011;17387;42.690;23.328;2023-02-12T01:11:30;22.17;;;11.43;;
29984;SDS011;17387;42.690;23.328;2023-02-12T01:13:55;22.48;;;11.77;;
29984;SDS011;17387;42.690;23.328;2023-02-12T01:16:21;22.85;;;12.00;;
29984;SDS011;17387;42.690;23.328;2023-02-12T01:18:47;23.42;;;11.70;;
29984;SDS011;17387;42.690;23.328;2023-02-12T01:21:15;21.60;;;11.52;;
29984;SDS011;17387;42.690;23.328;2023-02-12T01:23:41;23.73;;;11.85;;
29984;SDS011;17387;42.690;23.328;2023-02-12T01:26:07;23.92;;;11.73;;
29984;SDS011;17387;42.690;23.328;2023-02-12T01:28:35;21.88;;;11.05;;
29984;SDS011;17387;42.690;23.328;2023-02-12T01:31:00;24.17;;;12.18;;
29984;SDS011;17387;42.690;23.328;2023-02-12T01:33:25;24.73;;;12.80;;
29984;SDS011;17387;42.690;23.328;2023-02-12T01:35:50;25.00;;;12.82;;
29984;SDS011;17387;42.690;23.328;2023-02-12T01:38:16;24.75;;;13.23;;
29984;SDS011;17387;42.690;23.328;2023-02-12T01:40:41;24.98;;;13.38;;
29984;SDS011;17387;42.690;23.328;2023-02-12T01:43:09;30.00;;;14.18;;
29984;SDS011;17387;42.690;23.328;2023-02-12T01:48:01;27.35;;;14.13;;
29984;SDS011;17387;42.690;23.328;2023-02-12T01:50:26;25.63;;;13.32;;
29984;SDS011;17387;42.690;23.328;2023-02-12T01:52:53;27.17;;;14.57;;
29984;SDS011;17387;42.690;23.328;2023-02-12T01:55:20;26.67;;;13.25;;
29984;SDS011;17387;42.690;23.328;2023-02-12T01:57:46;23.67;;;13.38;;
29984;SDS011;17387;42.690;23.328;2023-02-12T02:00:12;26.90;;;13.73;;
29984;SDS011;17387;42.690;23.328;2023-02-12T02:02:38;26.52;;;14.60;;
29984;SDS011;17387;42.690;23.328;2023-02-12T02:05:04;25.55;;;14.43;;
29984;SDS011;17387;42.690;23.328;2023-02-12T02:07:30;29.35;;;14.73;;
29984;SDS011;17387;42.690;23.328;2023-02-12T02:09:56;29.08;;;14.10;;
29984;SDS011;17387;42.690;23.328;2023-02-12T02:12:21;30.20;;;14.68;;
29984;SDS011;17387;42.690;23.328;2023-02-12T02:15:05;31.48;;;15.00;;
29984;SDS011;17387;42.690;23.328;2023-02-12T02:17:46;25.55;;;13.80;;
29984;SDS011;17387;42.690;23.328;2023-02-12T02:23:16;28.65;;;14.55;;
29984;SDS011;17387;42.690;23.328;2023-02-12T02:30:56;36.13;;;16.60;;
29984;SDS011;17387;42.690;23.328;2023-02-12T02:33:35;32.63;;;16.70;;
29984;SDS011;17387;42.690;23.328;2023-02-12T02:38:33;36.88;;;17.77;;
29984;SDS011;17387;42.690;23.328;2023-02-12T02:41:04;32.13;;;16.65;;
29984;SDS011;17387;42.690;23.328;2023-02-12T02:43:32;33.97;;;17.73;;
29984;SDS011;17387;42.690;23.328;2023-02-12T02:46:00;36.17;;;17.30;;
29984;SDS011;17387;42.690;23.328;2023-02-12T02:48:36;32.63;;;16.80;;
29984;SDS011;17387;42.690;23.328;2023-02-12T02:51:04;33.38;;;17.00;;
29984;SDS011;17387;42.690;23.328;2023-02-12T02:53:35;33.95;;;17.75;;
29984;SDS011;17387;42.690;23.328;2023-02-12T02:56:01;31.45;;;17.73;;
29984;SDS011;17387;42.690;23.328;2023-02-12T02:58:31;33.97;;;17.85;;
29984;SDS011;17387;42.690;23.328;2023-02-12T03:01:01;34.28;;;17.20;;
29984;SDS011;17387;42.690;23.328;2023-02-12T03:03:33;32.63;;;16.83;;
29984;SDS011;17387;42.690;23.328;2023-02-12T03:06:01;31.60;;;16.92;;
29984;SDS011;17387;42.690;23.328;2023-02-12T03:08:28;35.05;;;18.60;;
29984;SDS011;17387;42.690;23.328;2023-02-12T03:11:08;30.52;;;14.77;;
29984;SDS011;17387;42.690;23.328;2023-02-12T03:13:39;33.63;;;16.90;;
29984;SDS011;17387;42.690;23.328;2023-02-12T03:16:08;34.83;;;17.55;;
29984;SDS011;17387;42.690;23.328;2023-02-12T03:18:39;36.45;;;17.67;;
29984;SDS011;17387;42.690;23.328;2023-02-12T03:21:08;34.30;;;17.48;;
29984;SDS011;17387;42.690;23.328;2023-02-12T03:23:36;36.72;;;18.88;;
29984;SDS011;17387;42.690;23.328;2023-02-12T03:26:25;34.83;;;17.35;;
29984;SDS011;17387;42.690;23.328;2023-02-12T03:28:50;31.88;;;16.90;;
29984;SDS011;17387;42.690;23.328;2023-02-12T03:39:27;35.00;;;17.73;;
29984;SDS011;17387;42.690;23.328;2023-02-12T03:47:20;33.70;;;17.38;;
29984;SDS011;17387;42.690;23.328;2023-02-12T03:52:12;35.33;;;18.55;;
29984;SDS011;17387;42.690;23.328;2023-02-12T03:54:37;30.83;;;16.58;;
29984;SDS011;17387;42.690;23.328;2023-02-12T03:57:05;33.88;;;17.00;;
29984;SDS011;17387;42.690;23.328;2023-02-12T03:59:34;34.05;;;17.35;;
29984;SDS011;17387;42.690;23.328;2023-02-12T04:02:01;37.22;;;18.02;;
29984;SDS011;17387;42.690;23.328;2023-02-12T04:04:27;36.47;;;17.42;;
29984;SDS011;17387;42.690;23.328;2023-02-12T04:06:52;34.17;;;17.58;;
29984;SDS011;17387;42.690;23.328;2023-02-12T04:09:21;31.88;;;17.70;;
29984;SDS011;17387;42.690;23.328;2023-02-12T04:24:58;34.95;;;17.95;;
29984;SDS011;17387;42.690;23.328;2023-02-12T04:27:39;35.47;;;17.55;;
29984;SDS011;17387;42.690;23.328;2023-02-12T04:30:13;34.40;;;17.10;;
29984;SDS011;17387;42.690;23.328;2023-02-12T04:32:51;38.38;;;18.25;;
29984;SDS011;17387;42.690;23.328;2023-02-12T04:35:36;34.95;;;18.17;;
29984;SDS011;17387;42.690;23.328;2023-02-12T04:40:32;34.22;;;18.08;;
29984;SDS011;17387;42.690;23.328;2023-02-12T04:42:58;32.22;;;17.05;;
29984;SDS011;17387;42.690;23.328;2023-02-12T04:45:30;31.83;;;17.15;;
29984;SDS011;17387;42.690;23.328;2023-02-12T04:47:57;31.95;;;16.35;;
29984;SDS011;17387;42.690;23.328;2023-02-12T04:50:22;34.90;;;17.58;;
29984;SDS011;17387;42.690;23.328;2023-02-12T04:52:48;35.67;;;17.77;;
29984;SDS011;17387;42.690;23.328;2023-02-12T04:55:13;35.15;;;18.05;;
29984;SDS011;17387;42.690;23.328;2023-02-12T04:57:39;30.88;;;16.52;;
29984;SDS011;17387;42.690;23.328;2023-02-12T05:00:05;30.33;;;16.63;;
29984;SDS011;17387;42.690;23.328;2023-02-12T05:02:32;32.50;;;16.23;;
29984;SDS011;17387;42.690;23.328;2023-02-12T05:04:57;36.92;;;17.00;;
29984;SDS011;17387;42.690;23.328;2023-02-12T05:07:22;32.85;;;16.30;;
29984;SDS011;17387;42.690;23.328;2023-02-12T05:09:48;35.22;;;16.90;;
29984;SDS011;17387;42.690;23.328;2023-02-12T05:12:13;32.33;;;16.63;;
29984;SDS011;17387;42.690;23.328;2023-02-12T05:14:38;34.35;;;17.45;;
29984;SDS011;17387;42.690;23.328;2023-02-12T05:17:03;31.80;;;16.58;;
29984;SDS011;17387;42.690;23.328;2023-02-12T05:19:29;33.63;;;16.73;;
29984;SDS011;17387;42.690;23.328;2023-02-12T05:21:54;32.00;;;15.98;;
29984;SDS011;17387;42.690;23.328;2023-02-12T05:24:19;26.83;;;15.13;;
29984;SDS011;17387;42.690;23.328;2023-02-12T05:26:44;29.63;;;14.13;;
29984;SDS011;17387;42.690;23.328;2023-02-12T05:29:10;27.13;;;13.80;;
29984;SDS011;17387;42.690;23.328;2023-02-12T05:31:35;28.65;;;14.35;;
29984;SDS011;17387;42.690;23.328;2023-02-12T05:34:00;24.85;;;13.65;;
29984;SDS011;17387;42.690;23.328;2023-02-12T05:36:26;27.08;;;14.55;;
29984;SDS011;17387;42.690;23.328;2023-02-12T05:38:51;30.23;;;15.40;;
29984;SDS011;17387;42.690;23.328;2023-02-12T05:41:18;32.17;;;15.70;;
29984;SDS011;17387;42.690;23.328;2023-02-12T05:43:44;32.85;;;15.57;;
29984;SDS011;17387;42.690;23.328;2023-02-12T05:46:09;29.83;;;15.27;;
29984;SDS011;17387;42.690;23.328;2023-02-12T05:48:35;33.92;;;17.15;;
29984;SDS011;17387;42.690;23.328;2023-02-12T05:51:03;31.63;;;16.33;;
29984;SDS011;17387;42.690;23.328;2023-02-12T05:53:29;31.08;;;16.35;;
29984;SDS011;17387;42.690;23.328;2023-02-12T05:56:04;32.58;;;17.20;;
29984;SDS011;17387;42.690;23.328;2023-02-12T05:58:29;36.33;;;16.65;;
29984;SDS011;17387;42.690;23.328;2023-02-12T06:00:54;37.75;;;17.48;;
29984;SDS011;17387;42.690;23.328;2023-02-12T06:03:20;35.47;;;16.88;;
29984;SDS011;17387;42.690;23.328;2023-02-12T06:05:49;36.67;;;19.10;;
29984;SDS011;17387;42.690;23.328;2023-02-12T06:08:14;36.67;;;19.25;;
29984;SDS011;17387;42.690;23.328;2023-02-12T06:10:39;37.67;;;19.65;;
29984;SDS011;17387;42.690;23.328;2023-02-12T06:13:05;31.92;;;16.27;;
29984;SDS011;17387;42.690;23.328;2023-02-12T06:15:30;34.25;;;17.65;;
29984;SDS011;17387;42.690;23.328;2023-02-12T06:17:56;32.63;;;15.77;;
29984;SDS011;17387;42.690;23.328;2023-02-12T06:20:21;30.13;;;16.02;;
29984;SDS011;17387;42.690;23.328;2023-02-12T06:22:46;31.05;;;15.45;;
29984;SDS011;17387;42.690;23.328;2023-02-12T06:25:12;35.13;;;17.42;;
29984;SDS011;17387;42.690;23.328;2023-02-12T06:27:37;28.15;;;14.75;;
29984;SDS011;17387;42.690;23.328;2023-02-12T06:30:02;29.08;;;14.40;;
29984;SDS011;17387;42.690;23.328;2023-02-12T06:32:28;31.73;;;16.10;;
29984;SDS011;17387;42.690;23.328;2023-02-12T06:34:53;30.55;;;17.38;;
29984;SDS011;17387;42.690;23.328;2023-02-12T06:37:18;33.85;;;17.50;;
29984;SDS011;17387;42.690;23.328;2023-02-12T06:39:44;34.22;;;17.55;;
29984;SDS011;17387;42.690;23.328;2023-02-12T06:42:11;30.92;;;15.35;;
29984;SDS011;17387;42.690;23.328;2023-02-12T06:44:36;35.30;;;16.55;;
29984;SDS011;17387;42.690;23.328;2023-02-12T06:47:01;33.63;;;18.42;;
29984;SDS011;17387;42.690;23.328;2023-02-12T06:49:27;34.08;;;18.45;;
29984;SDS011;17387;42.690;23.328;2023-02-12T06:51:52;31.75;;;16.52;;
29984;SDS011;17387;42.690;23.328;2023-02-12T06:54:17;33.67;;;17.25;;
29984;SDS011;17387;42.690;23.328;2023-02-12T06:56:43;29.65;;;16.30;;
29984;SDS011;17387;42.690;23.328;2023-02-12T06:59:10;36.13;;;17.45;;
29984;SDS011;17387;42.690;23.328;2023-02-12T07:01:36;29.73;;;16.33;;
29984;SDS011;17387;42.690;23.328;2023-02-12T07:04:02;34.08;;;17.52;;
29984;SDS011;17387;42.690;23.328;2023-02-12T07:06:27;31.17;;;17.70;;
29984;SDS011;17387;42.690;23.328;2023-02-12T07:08:54;32.17;;;17.52;;
29984;SDS011;17387;42.690;23.328;2023-02-12T07:11:23;32.58;;;17.20;;
29984;SDS011;17387;42.690;23.328;2023-02-12T07:13:48;33.20;;;16.15;;
29984;SDS011;17387;42.690;23.328;2023-02-12T07:16:14;33.20;;;17.25;;
29984;SDS011;17387;42.690;23.328;2023-02-12T07:18:40;33.33;;;17.50;;
29984;SDS011;17387;42.690;23.328;2023-02-12T07:21:06;30.83;;;15.40;;
29984;SDS011;17387;42.690;23.328;2023-02-12T07:23:31;38.17;;;18.20;;
29984;SDS011;17387;42.690;23.328;2023-02-12T07:26:00;31.48;;;17.70;;
29984;SDS011;17387;42.690;23.328;2023-02-12T07:28:26;34.05;;;17.35;;
29984;SDS011;17387;42.690;23.328;2023-02-12T07:30:51;30.33;;;16.05;;
29984;SDS011;17387;42.690;23.328;2023-02-12T07:33:17;32.83;;;16.48;;
29984;SDS011;17387;42.690;23.328;2023-02-12T07:35:42;36.45;;;18.17;;
29984;SDS011;17387;42.690;23.328;2023-02-12T07:38:08;31.48;;;17.17;;
29984;SDS011;17387;42.690;23.328;2023-02-12T07:40:34;31.02;;;15.52;;
29984;SDS011;17387;42.690;23.328;2023-02-12T07:43:00;29.08;;;16.48;;
29984;SDS011;17387;42.690;23.328;2023-02-12T07:45:25;30.05;;;16.42;;
29984;SDS011;17387;42.690;23.328;2023-02-12T07:47:50;33.38;;;17.55;;
29984;SDS011;17387;42.690;23.328;2023-02-12T07:50:16;35.08;;;17.10;;
29984;SDS011;17387;42.690;23.328;2023-02-12T07:52:41;37.40;;;17.65;;
29984;SDS011;17387;42.690;23.328;2023-02-12T07:55:06;37.28;;;18.45;;
29984;SDS011;17387;42.690;23.328;2023-02-12T07:57:33;34.25;;;18.83;;
29984;SDS011;17387;42.690;23.328;2023-02-12T07:59:58;35.63;;;20.73;;
29984;SDS011;17387;42.690;23.328;2023-02-12T08:02:23;37.55;;;19.88;;
29984;SDS011;17387;42.690;23.328;2023-02-12T08:04:53;35.05;;;18.25;;
29984;SDS011;17387;42.690;23.328;2023-02-12T08:07:19;40.33;;;19.23;;
29984;SDS011;17387;42.690;23.328;2023-02-12T08:09:44;35.45;;;18.50;;
29984;SDS011;17387;42.690;23.328;2023-02-12T08:12:09;37.28;;;19.42;;
29984;SDS011;17387;42.690;23.328;2023-02-12T08:14:35;36.40;;;20.88;;
29984;SDS011;17387;42.690;23.328;2023-02-12T08:17:00;39.83;;;21.13;;
29984;SDS011;17387;42.690;23.328;2023-02-12T08:19:25;35.88;;;19.83;;
29984;SDS011;17387;42.690;23.328;2023-02-12T08:21:51;40.58;;;20.25;;
29984;SDS011;17387;42.690;23.328;2023-02-12T08:24:17;43.58;;;20.77;;
29984;SDS011;17387;42.690;23.328;2023-02-12T08:26:42;37.08;;;19.73;;
29984;SDS011;17387;42.690;23.328;2023-02-12T08:29:12;38.08;;;19.95;;
29984;SDS011;17387;42.690;23.328;2023-02-12T08:31:42;39.90;;;20.27;;
29984;SDS011;17387;42.690;23.328;2023-02-12T08:34:21;39.75;;;20.75;;
29984;SDS011;17387;42.690;23.328;2023-02-12T08:36:47;39.00;;;20.67;;
29984;SDS011;17387;42.690;23.328;2023-02-12T08:39:12;39.08;;;19.88;;
29984;SDS011;17387;42.690;23.328;2023-02-12T08:41:38;39.88;;;21.50;;
29984;SDS011;17387;42.690;23.328;2023-02-12T08:44:06;41.65;;;20.80;;
29984;SDS011;17387;42.690;23.328;2023-02-12T08:46:32;38.35;;;20.20;;
29984;SDS011;17387;42.690;23.328;2023-02-12T08:49:06;35.95;;;20.27;;
29984;SDS011;17387;42.690;23.328;2023-02-12T08:51:33;42.10;;;22.73;;
29984;SDS011;17387;42.690;23.328;2023-02-12T08:54:00;39.72;;;21.42;;
29984;SDS011;17387;42.690;23.328;2023-02-12T08:56:26;43.08;;;22.13;;
29984;SDS011;17387;42.690;23.328;2023-02-12T08:58:53;39.42;;;21.63;;
29984;SDS011;17387;42.690;23.328;2023-02-12T09:01:20;41.67;;;20.90;;
29984;SDS011;17387;42.690;23.328;2023-02-12T09:03:46;40.88;;;22.08;;
29984;SDS011;17387;42.690;23.328;2023-02-12T09:06:11;44.95;;;23.52;;
29984;SDS011;17387;42.690;23.328;2023-02-12T09:08:37;42.97;;;24.63;;
29984;SDS011;17387;42.690;23.328;2023-02-12T09:11:07;47.03;;;24.65;;
29984;SDS011;17387;42.690;23.328;2023-02-12T09:13:33;47.47;;;25.15;;
29984;SDS011;17387;42.690;23.328;2023-02-12T09:15:59;48.72;;;24.80;;
29984;SDS011;17387;42.690;23.328;2023-02-12T09:18:25;46.30;;;25.90;;
29984;SDS011;17387;42.690;23.328;2023-02-12T09:20:50;43.85;;;23.75;;
29984;SDS011;17387;42.690;23.328;2023-02-12T09:23:15;43.50;;;23.38;;
29984;SDS011;17387;42.690;23.328;2023-02-12T09:25:41;44.10;;;25.67;;
29984;SDS011;17387;42.690;23.328;2023-02-12T09:28:07;47.55;;;24.77;;
29984;SDS011;17387;42.690;23.328;2023-02-12T09:30:32;47.20;;;26.77;;
29984;SDS011;17387;42.690;23.328;2023-02-12T09:32:58;50.50;;;27.08;;
29984;SDS011;17387;42.690;23.328;2023-02-12T09:35:23;48.88;;;27.00;;
29984;SDS011;17387;42.690;23.328;2023-02-12T09:37:49;43.97;;;25.27;;
29984;SDS011;17387;42.690;23.328;2023-02-12T09:40:21;48.47;;;25.67;;
29984;SDS011;17387;42.690;23.328;2023-02-12T09:42:54;48.13;;;24.77;;
29984;SDS011;17387;42.690;23.328;2023-02-12T09:45:22;48.55;;;26.05;;
29984;SDS011;17387;42.690;23.328;2023-02-12T09:50:26;49.53;;;26.45;;
29984;SDS011;17387;42.690;23.328;2023-02-12T09:52:52;42.35;;;24.55;;
29984;SDS011;17387;42.690;23.328;2023-02-12T09:55:18;49.42;;;25.13;;
29984;SDS011;17387;42.690;23.328;2023-02-12T09:57:44;49.42;;;27.55;;
29984;SDS011;17387;42.690;23.328;2023-02-12T10:02:41;41.03;;;23.20;;
29984;SDS011;17387;42.690;23.328;2023-02-12T10:05:13;49.72;;;27.63;;
29984;SDS011;17387;42.690;23.328;2023-02-12T10:12:58;47.60;;;26.15;;
29984;SDS011;17387;42.690;23.328;2023-02-12T10:15:34;50.63;;;27.95;;
29984;SDS011;17387;42.690;23.328;2023-02-12T10:20:53;46.90;;;24.50;;
29984;SDS011;17387;42.690;23.328;2023-02-12T10:26:15;49.22;;;25.38;;
29984;SDS011;17387;42.690;23.328;2023-02-12T10:28:42;44.20;;;24.90;;
29984;SDS011;17387;42.690;23.328;2023-02-12T10:31:12;49.75;;;26.30;;
29984;SDS011;17387;42.690;23.328;2023-02-12T10:33:46;48.33;;;27.15;;
29984;SDS011;17387;42.690;23.328;2023-02-12T10:39:20;53.33;;;27.33;;
29984;SDS011;17387;42.690;23.328;2023-02-12T10:41:54;52.70;;;27.90;;
29984;SDS011;17387;42.690;23.328;2023-02-12T10:44:20;50.25;;;27.42;;
29984;SDS011;17387;42.690;23.328;2023-02-12T10:46:45;49.05;;;26.02;;
29984;SDS011;17387;42.690;23.328;2023-02-12T10:49:12;50.58;;;27.40;;
29984;SDS011;17387;42.690;23.328;2023-02-12T10:57:30;51.33;;;27.67;;
29984;SDS011;17387;42.690;23.328;2023-02-12T11:00:13;50.50;;;27.20;;
29984;SDS011;17387;42.690;23.328;2023-02-12T11:02:39;53.22;;;28.77;;
29984;SDS011;17387;42.690;23.328;2023-02-12T11:05:23;55.22;;;29.23;;
29984;SDS011;17387;42.690;23.328;2023-02-12T11:07:49;51.15;;;28.15;;
29984;SDS011;17387;42.690;23.328;2023-02-12T11:10:24;50.88;;;26.75;;
29984;SDS011;17387;42.690;23.328;2023-02-12T11:12:51;52.17;;;27.80;;
29984;SDS011;17387;42.690;23.328;2023-02-12T11:15:18;49.78;;;28.42;;
29984;SDS011;17387;42.690;23.328;2023-02-12T11:17:45;51.45;;;27.80;;
29984;SDS011;17387;42.690;23.328;2023-02-12T11:20:19;49.10;;;27.80;;
29984;SDS011;17387;42.690;23.328;2023-02-12T11:25:14;46.80;;;27.38;;
29984;SDS011;17387;42.690;23.328;2023-02-12T11:27:40;50.30;;;26.70;;
29984;SDS011;17387;42.690;23.328;2023-02-12T11:32:34;46.28;;;26.10;;
29984;SDS011;17387;42.690;23.328;2023-02-12T11:35:13;46.22;;;25.55;;
29984;SDS011;17387;42.690;23.328;2023-02-12T11:37:42;50.50;;;26.30;;
29984;SDS011;17387;42.690;23.328;2023-02-12T11:40:30;51.75;;;27.60;;
29984;SDS011;17387;42.690;23.328;2023-02-12T11:42:57;56.03;;;28.88;;
29984;SDS011;17387;42.690;23.328;2023-02-12T11:45:26;47.75;;;24.58;;
29984;SDS011;17387;42.690;23.328;2023-02-12T11:47:56;48.58;;;26.63;;
29984;SDS011;17387;42.690;23.328;2023-02-12T11:50:24;48.45;;;27.02;;
29984;SDS011;17387;42.690;23.328;2023-02-12T11:52:51;48.38;;;27.55;;
29984;SDS011;17387;42.690;23.328;2023-02-12T11:55:28;50.78;;;27.63;;
29984;SDS011;17387;42.690;23.328;2023-02-12T11:58:04;52.95;;;29.33;;
29984;SDS011;17387;42.690;23.328;2023-02-12T12:15:25;53.70;;;28.52;;
29984;SDS011;17387;42.690;23.328;2023-02-12T12:18:30;51.03;;;28.48;;
29984;SDS011;17387;42.690;23.328;2023-02-12T12:24:20;45.63;;;26.42;;
29984;SDS011;17387;42.690;23.328;2023-02-12T12:30:10;50.55;;;27.40;;
29984;SDS011;17387;42.690;23.328;2023-02-12T12:32:39;46.67;;;26.98;;
29984;SDS011;17387;42.690;23.328;2023-02-12T12:35:31;45.20;;;26.05;;
29984;SDS011;17387;42.690;23.328;2023-02-12T12:38:01;47.08;;;26.80;;
29984;SDS011;17387;42.690;23.328;2023-02-12T12:43:21;45.65;;;26.40;;
29984;SDS011;17387;42.690;23.328;2023-02-12T12:49:02;48.08;;;26.70;;
29984;SDS011;17387;42.690;23.328;2023-02-12T12:51:48;54.97;;;29.70;;
29984;SDS011;17387;42.690;23.328;2023-02-12T12:54:24;54.20;;;29.52;;
29984;SDS011;17387;42.690;23.328;2023-02-12T12:59:55;52.60;;;28.10;;
29984;SDS011;17387;42.690;23.328;2023-02-12T13:18:50;56.80;;;30.75;;
29984;SDS011;17387;42.690;23.328;2023-02-12T13:21:36;54.03;;;30.10;;
29984;SDS011;17387;42.690;23.328;2023-02-12T13:26:56;48.75;;;28.08;;
29984;SDS011;17387;42.690;23.328;2023-02-12T13:32:27;58.67;;;31.27;;
29984;SDS011;17387;42.690;23.328;2023-02-12T13:35:05;48.35;;;27.40;;
29984;SDS011;17387;42.690;23.328;2023-02-12T13:37:35;46.08;;;25.65;;
29984;SDS011;17387;42.690;23.328;2023-02-12T13:48:05;55.95;;;32.10;;
29984;SDS011;17387;42.690;23.328;2023-02-12T13:56:35;52.22;;;30.95;;
29984;SDS011;17387;42.690;23.328;2023-02-12T13:59:02;48.67;;;29.08;;
29984;SDS011;17387;42.690;23.328;2023-02-12T14:09:46;54.80;;;31.15;;
29984;SDS011;17387;42.690;23.328;2023-02-12T14:19:56;55.47;;;31.33;;
29984;SDS011;17387;42.690;23.328;2023-02-12T14:24:55;55.30;;;31.60;;
29984;SDS011;17387;42.690;23.328;2023-02-12T14:40:44;57.78;;;31.25;;
29984;SDS011;17387;42.690;23.328;2023-02-12T14:43:24;56.22;;;31.48;;
29984;SDS011;17387;42.690;23.328;2023-02-12T14:45:50;55.55;;;31.70;;
29984;SDS011;17387;42.690;23.328;2023-02-12T14:51:00;62.25;;;33.63;;
29984;SDS011;17387;42.690;23.328;2023-02-12T14:53:30;64.35;;;34.08;;
29984;SDS011;17387;42.690;23.328;2023-02-12T14:55:56;67.78;;;36.05;;
29984;SDS011;17387;42.690;23.328;2023-02-12T14:58:22;63.08;;;35.35;;
29984;SDS011;17387;42.690;23.328;2023-02-12T15:00:53;57.90;;;33.53;;
29984;SDS011;17387;42.690;23.328;2023-02-12T15:03:26;61.15;;;32.67;;
29984;SDS011;17387;42.690;23.328;2023-02-12T15:10:54;60.80;;;33.03;;
29984;SDS011;17387;42.690;23.328;2023-02-12T15:20:43;64.40;;;35.90;;
29984;SDS011;17387;42.690;23.328;2023-02-12T15:25:54;60.90;;;33.50;;
29984;SDS011;17387;42.690;23.328;2023-02-12T15:28:22;68.18;;;36.60;;
29984;SDS011;17387;42.690;23.328;2023-02-12T15:30:47;69.05;;;37.55;;
29984;SDS011;17387;42.690;23.328;2023-02-12T15:33:20;65.22;;;34.80;;
29984;SDS011;17387;42.690;23.328;2023-02-12T15:35:47;65.03;;;36.47;;
29984;SDS011;17387;42.690;23.328;2023-02-12T15:38:19;67.68;;;37.30;;
29984;SDS011;17387;42.690;23.328;2023-02-12T15:40:53;61.88;;;33.42;;
29984;SDS011;17387;42.690;23.328;2023-02-12T15:43:24;63.20;;;35.08;;
29984;SDS011;17387;42.690;23.328;2023-02-12T15:45:51;67.65;;;36.75;;
29984;SDS011;17387;42.690;23.328;2023-02-12T15:48:20;66.38;;;37.92;;
29984;SDS011;17387;42.690;23.328;2023-02-12T15:51:08;66.70;;;35.55;;
29984;SDS011;17387;42.690;23.328;2023-02-12T15:53:38;71.22;;;37.70;;
29984;SDS011;17387;42.690;23.328;2023-02-12T15:56:17;74.47;;;40.60;;
29984;SDS011;17387;42.690;23.328;2023-02-12T15:59:16;71.43;;;40.85;;
29984;SDS011;17387;42.690;23.328;2023-02-12T16:01:50;73.82;;;39.00;;
29984;SDS011;17387;42.690;23.328;2023-02-12T16:04:22;75.47;;;41.67;;
29984;SDS011;17387;42.690;23.328;2023-02-12T16:06:48;75.13;;;40.45;;
29984;SDS011;17387;42.690;23.328;2023-02-12T16:09:14;74.10;;;40.28;;
29984;SDS011;17387;42.690;23.328;2023-02-12T16:11:44;70.53;;;38.90;;
29984;SDS011;17387;42.690;23.328;2023-02-12T16:14:21;76.45;;;40.90;;
29984;SDS011;17387;42.690;23.328;2023-02-12T16:16:49;77.90;;;41.95;;
29984;SDS011;17387;42.690;23.328;2023-02-12T16:19:24;81.38;;;42.58;;
29984;SDS011;17387;42.690;23.328;2023-02-12T16:21:54;79.28;;;41.20;;
29984;SDS011;17387;42.690;23.328;2023-02-12T16:26:57;77.05;;;40.15;;
29984;SDS011;17387;42.690;23.328;2023-02-12T16:29:25;83.20;;;41.78;;
29984;SDS011;17387;42.690;23.328;2023-02-12T16:31:54;80.00;;;42.40;;
29984;SDS011;17387;42.690;23.328;2023-02-12T16:47:50;84.10;;;44.38;;
29984;SDS011;17387;42.690;23.328;2023-02-12T16:50:17;82.63;;;42.55;;
29984;SDS011;17387;42.690;23.328;2023-02-12T16:52:42;78.28;;;42.13;;
29984;SDS011;17387;42.690;23.328;2023-02-12T16:55:15;83.65;;;45.22;;
29984;SDS011;17387;42.690;23.328;2023-02-12T16:57:43;76.00;;;40.70;;
29984;SDS011;17387;42.690;23.328;2023-02-12T17:00:11;72.32;;;41.53;;
29984;SDS011;17387;42.690;23.328;2023-02-12T17:02:39;80.10;;;42.90;;
29984;SDS011;17387;42.690;23.328;2023-02-12T17:05:04;89.18;;;47.85;;
29984;SDS011;17387;42.690;23.328;2023-02-12T17:07:33;76.50;;;41.38;;
29984;SDS011;17387;42.690;23.328;2023-02-12T17:09:59;83.50;;;43.47;;
29984;SDS011;17387;42.690;23.328;2023-02-12T17:12:30;81.38;;;44.13;;
29984;SDS011;17387;42.690;23.328;2023-02-12T17:17:26;81.85;;;43.17;;
29984;SDS011;17387;42.690;23.328;2023-02-12T17:19:54;81.88;;;43.38;;
29984;SDS011;17387;42.690;23.328;2023-02-12T17:22:22;86.40;;;45.35;;
29984;SDS011;17387;42.690;23.328;2023-02-12T17:24:49;86.88;;;44.97;;
29984;SDS011;17387;42.690;23.328;2023-02-12T17:27:18;82.00;;;43.72;;
29984;SDS011;17387;42.690;23.328;2023-02-12T17:29:44;100.20;;;50.55;;
29984;SDS011;17387;42.690;23.328;2023-02-12T17:32:10;96.82;;;49.53;;
29984;SDS011;17387;42.690;23.328;2023-02-12T17:34:35;87.60;;;46.92;;
29984;SDS011;17387;42.690;23.328;2023-02-12T17:37:03;90.68;;;48.70;;
29984;SDS011;17387;42.690;23.328;2023-02-12T17:39:29;94.05;;;49.83;;
29984;SDS011;17387;42.690;23.328;2023-02-12T17:41:54;94.68;;;49.83;;
29984;SDS011;17387;42.690;23.328;2023-02-12T17:44:20;105.90;;;54.40;;